sensor_id;sensor_type;location;lat;lon;timestamp;P1;durP1;ratioP1;P2;durP2;ratioP2
55710;SDS011;41612;51.994;5.880;2022-11-27T03:37:53;14.82;;;6.18;;
55710;SDS011;41612;51.994;5.880;2022-11-27T03:40:20;18.20;;;7.78;;
55710;SDS011;41612;51.994;5.880;2022-11-27T03:45:43;16.80;;;5.30;;
55710;SDS011;41612;51.994;5.880;2022-11-27T03:51:51;21.02;;;6.53;;
55710;SDS011;41612;51.994;5.880;2022-11-27T03:54:40;16.98;;;5.45;;
55710;SDS011;41612;51.994;5.880;2022-11-27T03:57:12;20.17;;;5.50;;
55710;SDS011;41612;51.994;5.880;2022-11-27T03:59:45;13.98;;;4.93;;
55710;SDS011;41612;51.994;5.880;2022-11-27T04:02:15;21.08;;;5.05;;
55710;SDS011;41612;51.994;5.880;2022-11-27T04:04:49;11.70;;;5.20;;
55710;SDS011;41612;51.994;5.880;2022-11-27T04:07:15;17.35;;;5.35;;
55710;SDS011;41612;51.994;5.880;2022-11-27T04:09:41;14.38;;;6.75;;
55710;SDS011;41612;51.994;5.880;2022-11-27T04:12:10;18.63;;;5.38;;
55710;SDS011;41612;51.994;5.880;2022-11-27T04:14:36;14.80;;;5.45;;
55710;SDS011;41612;51.994;5.880;2022-11-27T04:17:01;12.23;;;5.32;;
55710;SDS011;41612;51.994;5.880;2022-11-27T04:19:27;16.52;;;5.22;;
55710;SDS011;41612;51.994;5.880;2022-11-27T04:21:53;13.57;;;5.22;;
55710;SDS011;41612;51.994;5.880;2022-11-27T04:24:19;12.82;;;5.38;;
55710;SDS011;41612;51.994;5.880;2022-11-27T04:26:44;14.55;;;5.45;;
55710;SDS011;41612;51.994;5.880;2022-11-27T04:29:10;9.40;;;4.45;;
55710;SDS011;41612;51.994;5.880;2022-11-27T04:31:38;8.35;;;4.63;;
55710;SDS011;41612;51.994;5.880;2022-11-27T04:34:04;12.45;;;4.50;;
55710;SDS011;41612;51.994;5.880;2022-11-27T04:36:30;25.38;;;7.78;;
55710;SDS011;41612;51.994;5.880;2022-11-27T04:38:55;15.88;;;5.70;;
55710;SDS011;41612;51.994;5.880;2022-11-27T04:41:21;13.00;;;5.85;;
55710;SDS011;41612;51.994;5.880;2022-11-27T04:43:50;11.48;;;4.53;;
55710;SDS011;41612;51.994;5.880;2022-11-27T04:46:16;13.07;;;5.20;;
55710;SDS011;41612;51.994;5.880;2022-11-27T04:48:42;12.10;;;4.40;;
55710;SDS011;41612;51.994;5.880;2022-11-27T04:51:07;12.93;;;5.10;;
55710;SDS011;41612;51.994;5.880;2022-11-27T04:53:33;14.90;;;5.03;;
55710;SDS011;41612;51.994;5.880;2022-11-27T04:55:59;17.05;;;4.57;;
55710;SDS011;41612;51.994;5.880;2022-11-27T04:58:25;14.75;;;4.63;;
55710;SDS011;41612;51.994;5.880;2022-11-27T05:00:50;15.15;;;4.47;;
55710;SDS011;41612;51.994;5.880;2022-11-27T05:03:19;15.10;;;5.00;;
55710;SDS011;41612;51.994;5.880;2022-11-27T05:05:46;15.30;;;4.95;;
55710;SDS011;41612;51.994;5.880;2022-11-27T05:08:22;10.73;;;4.40;;
55710;SDS011;41612;51.994;5.880;2022-11-27T05:13:43;16.05;;;5.00;;
55710;SDS011;41612;51.994;5.880;2022-11-27T05:16:09;9.05;;;4.95;;
55710;SDS011;41612;51.994;5.880;2022-11-27T05:18:35;13.20;;;5.18;;
55710;SDS011;41612;51.994;5.880;2022-11-27T05:21:02;9.50;;;4.60;;
55710;SDS011;41612;51.994;5.880;2022-11-27T05:23:30;18.98;;;5.30;;
55710;SDS011;41612;51.994;5.880;2022-11-27T05:25:56;11.82;;;4.47;;
55710;SDS011;41612;51.994;5.880;2022-11-27T05:28:22;16.45;;;7.18;;
55710;SDS011;41612;51.994;5.880;2022-11-27T05:30:48;12.85;;;5.72;;
55710;SDS011;41612;51.994;5.880;2022-11-27T05:33:17;11.32;;;4.60;;
55710;SDS011;41612;51.994;5.880;2022-11-27T05:35:43;11.55;;;5.38;;
55710;SDS011;41612;51.994;5.880;2022-11-27T05:38:12;15.00;;;5.03;;
55710;SDS011;41612;51.994;5.880;2022-11-27T05:40:38;14.05;;;5.43;;
55710;SDS011;41612;51.994;5.880;2022-11-27T05:43:04;11.63;;;4.85;;
55710;SDS011;41612;51.994;5.880;2022-11-27T05:45:30;13.77;;;5.50;;
55710;SDS011;41612;51.994;5.880;2022-11-27T05:47:56;11.88;;;4.80;;
55710;SDS011;41612;51.994;5.880;2022-11-27T05:50:22;9.73;;;4.55;;
55710;SDS011;41612;51.994;5.880;2022-11-27T05:52:51;14.20;;;5.30;;
55710;SDS011;41612;51.994;5.880;2022-11-27T05:55:19;10.40;;;5.07;;
55710;SDS011;41612;51.994;5.880;2022-11-27T05:57:44;10.38;;;5.28;;
55710;SDS011;41612;51.994;5.880;2022-11-27T06:00:10;13.27;;;5.13;;
55710;SDS011;41612;51.994;5.880;2022-11-27T06:02:37;18.17;;;5.35;;
55710;SDS011;41612;51.994;5.880;2022-11-27T06:05:02;13.57;;;5.10;;
55710;SDS011;41612;51.994;5.880;2022-11-27T06:07:29;14.65;;;4.85;;
55710;SDS011;41612;51.994;5.880;2022-11-27T06:09:55;10.38;;;5.38;;
55710;SDS011;41612;51.994;5.880;2022-11-27T06:12:21;11.60;;;4.63;;
55710;SDS011;41612;51.994;5.880;2022-11-27T06:14:47;14.00;;;5.95;;
55710;SDS011;41612;51.994;5.880;2022-11-27T06:17:12;19.85;;;6.00;;
55710;SDS011;41612;51.994;5.880;2022-11-27T06:19:41;9.82;;;4.80;;
55710;SDS011;41612;51.994;5.880;2022-11-27T06:22:07;14.00;;;5.95;;
55710;SDS011;41612;51.994;5.880;2022-11-27T06:24:33;8.85;;;4.90;;
55710;SDS011;41612;51.994;5.880;2022-11-27T06:26:59;15.65;;;6.32;;
55710;SDS011;41612;51.994;5.880;2022-11-27T06:29:24;14.77;;;6.85;;
55710;SDS011;41612;51.994;5.880;2022-11-27T06:31:50;14.50;;;5.35;;
55710;SDS011;41612;51.994;5.880;2022-11-27T06:34:16;11.75;;;5.95;;
55710;SDS011;41612;51.994;5.880;2022-11-27T06:36:41;12.35;;;6.00;;
55710;SDS011;41612;51.994;5.880;2022-11-27T06:39:08;13.23;;;5.40;;
55710;SDS011;41612;51.994;5.880;2022-11-27T06:41:36;15.07;;;6.05;;
55710;SDS011;41612;51.994;5.880;2022-11-27T06:44:02;11.95;;;5.13;;
55710;SDS011;41612;51.994;5.880;2022-11-27T06:46:28;14.38;;;6.70;;
55710;SDS011;41612;51.994;5.880;2022-11-27T06:48:54;13.63;;;5.32;;
55710;SDS011;41612;51.994;5.880;2022-11-27T06:51:22;13.88;;;7.68;;
55710;SDS011;41612;51.994;5.880;2022-11-27T06:53:49;14.63;;;6.82;;
55710;SDS011;41612;51.994;5.880;2022-11-27T06:56:17;16.27;;;6.60;;
55710;SDS011;41612;51.994;5.880;2022-11-27T06:58:45;11.82;;;6.13;;
55710;SDS011;41612;51.994;5.880;2022-11-27T07:01:11;14.15;;;6.68;;
55710;SDS011;41612;51.994;5.880;2022-11-27T07:03:39;11.75;;;5.93;;
55710;SDS011;41612;51.994;5.880;2022-11-27T07:06:06;10.18;;;6.00;;
55710;SDS011;41612;51.994;5.880;2022-11-27T07:08:33;12.80;;;5.80;;
55710;SDS011;41612;51.994;5.880;2022-11-27T07:11:03;13.77;;;6.15;;
55710;SDS011;41612;51.994;5.880;2022-11-27T07:13:31;21.00;;;7.43;;
55710;SDS011;41612;51.994;5.880;2022-11-27T07:16:00;15.70;;;7.00;;
55710;SDS011;41612;51.994;5.880;2022-11-27T07:18:35;18.75;;;7.05;;
55710;SDS011;41612;51.994;5.880;2022-11-27T07:21:02;17.02;;;6.30;;
55710;SDS011;41612;51.994;5.880;2022-11-27T07:23:28;13.05;;;6.45;;
55710;SDS011;41612;51.994;5.880;2022-11-27T07:25:53;15.88;;;8.25;;
55710;SDS011;41612;51.994;5.880;2022-11-27T07:28:19;14.88;;;6.38;;
55710;SDS011;41612;51.994;5.880;2022-11-27T07:30:45;12.13;;;5.82;;
55710;SDS011;41612;51.994;5.880;2022-11-27T07:33:17;13.98;;;7.63;;
55710;SDS011;41612;51.994;5.880;2022-11-27T07:35:43;17.75;;;6.80;;
55710;SDS011;41612;51.994;5.880;2022-11-27T07:38:09;16.20;;;6.40;;
55710;SDS011;41612;51.994;5.880;2022-11-27T07:40:36;15.48;;;6.47;;
55710;SDS011;41612;51.994;5.880;2022-11-27T07:43:02;17.45;;;7.32;;
55710;SDS011;41612;51.994;5.880;2022-11-27T07:45:28;11.88;;;7.40;;
55710;SDS011;41612;51.994;5.880;2022-11-27T07:47:54;20.40;;;8.40;;
55710;SDS011;41612;51.994;5.880;2022-11-27T07:50:19;18.48;;;7.40;;
55710;SDS011;41612;51.994;5.880;2022-11-27T07:52:45;15.30;;;7.35;;
55710;SDS011;41612;51.994;5.880;2022-11-27T07:55:11;18.75;;;8.57;;
55710;SDS011;41612;51.994;5.880;2022-11-27T07:57:37;15.20;;;7.47;;
55710;SDS011;41612;51.994;5.880;2022-11-27T08:00:03;23.73;;;8.43;;
55710;SDS011;41612;51.994;5.880;2022-11-27T08:02:30;17.35;;;8.38;;
55710;SDS011;41612;51.994;5.880;2022-11-27T08:04:55;15.05;;;8.38;;
55710;SDS011;41612;51.994;5.880;2022-11-27T08:07:30;15.43;;;8.57;;
55710;SDS011;41612;51.994;5.880;2022-11-27T08:09:59;19.27;;;8.18;;
55710;SDS011;41612;51.994;5.880;2022-11-27T08:12:25;16.60;;;7.95;;
55710;SDS011;41612;51.994;5.880;2022-11-27T08:14:51;25.02;;;8.93;;
55710;SDS011;41612;51.994;5.880;2022-11-27T08:17:17;15.57;;;7.30;;
55710;SDS011;41612;51.994;5.880;2022-11-27T08:19:43;22.30;;;11.27;;
55710;SDS011;41612;51.994;5.880;2022-11-27T08:22:12;18.80;;;8.80;;
55710;SDS011;41612;51.994;5.880;2022-11-27T08:24:39;19.02;;;8.70;;
55710;SDS011;41612;51.994;5.880;2022-11-27T08:27:09;25.05;;;9.00;;
55710;SDS011;41612;51.994;5.880;2022-11-27T08:29:36;21.17;;;8.45;;
55710;SDS011;41612;51.994;5.880;2022-11-27T08:32:05;20.00;;;9.48;;
55710;SDS011;41612;51.994;5.880;2022-11-27T08:34:31;19.60;;;10.02;;
55710;SDS011;41612;51.994;5.880;2022-11-27T08:36:57;30.27;;;11.13;;
55710;SDS011;41612;51.994;5.880;2022-11-27T08:39:22;23.27;;;9.05;;
55710;SDS011;41612;51.994;5.880;2022-11-27T08:41:50;20.90;;;9.13;;
55710;SDS011;41612;51.994;5.880;2022-11-27T08:44:16;18.80;;;9.02;;
55710;SDS011;41612;51.994;5.880;2022-11-27T08:46:42;17.73;;;9.32;;
55710;SDS011;41612;51.994;5.880;2022-11-27T08:49:08;16.55;;;9.32;;
55710;SDS011;41612;51.994;5.880;2022-11-27T08:51:33;16.80;;;10.05;;
55710;SDS011;41612;51.994;5.880;2022-11-27T08:53:59;23.15;;;9.65;;
55710;SDS011;41612;51.994;5.880;2022-11-27T08:56:26;18.20;;;9.93;;
55710;SDS011;41612;51.994;5.880;2022-11-27T08:58:51;22.83;;;10.32;;
55710;SDS011;41612;51.994;5.880;2022-11-27T09:01:21;26.50;;;10.73;;
55710;SDS011;41612;51.994;5.880;2022-11-27T09:03:49;19.42;;;10.18;;
55710;SDS011;41612;51.994;5.880;2022-11-27T09:06:17;22.33;;;10.20;;
55710;SDS011;41612;51.994;5.880;2022-11-27T09:08:45;17.20;;;8.13;;
55710;SDS011;41612;51.994;5.880;2022-11-27T09:11:12;21.05;;;9.10;;
55710;SDS011;41612;51.994;5.880;2022-11-27T09:13:39;20.98;;;9.00;;
55710;SDS011;41612;51.994;5.880;2022-11-27T09:16:06;23.38;;;10.32;;
55710;SDS011;41612;51.994;5.880;2022-11-27T09:18:34;29.17;;;12.15;;
55710;SDS011;41612;51.994;5.880;2022-11-27T09:21:01;24.70;;;10.10;;
55710;SDS011;41612;51.994;5.880;2022-11-27T09:23:29;24.75;;;10.35;;
55710;SDS011;41612;51.994;5.880;2022-11-27T09:26:02;19.15;;;11.70;;
55710;SDS011;41612;51.994;5.880;2022-11-27T09:28:30;17.73;;;10.15;;
55710;SDS011;41612;51.994;5.880;2022-11-27T09:30:58;21.60;;;9.88;;
55710;SDS011;41612;51.994;5.880;2022-11-27T09:33:26;25.08;;;10.80;;
55710;SDS011;41612;51.994;5.880;2022-11-27T09:35:53;20.35;;;9.60;;
55710;SDS011;41612;51.994;5.880;2022-11-27T09:38:19;25.05;;;10.25;;
55710;SDS011;41612;51.994;5.880;2022-11-27T09:40:46;19.55;;;8.95;;
55710;SDS011;41612;51.994;5.880;2022-11-27T09:43:13;20.90;;;10.00;;
55710;SDS011;41612;51.994;5.880;2022-11-27T09:45:51;26.67;;;9.85;;
55710;SDS011;41612;51.994;5.880;2022-11-27T09:48:21;24.13;;;9.43;;
55710;SDS011;41612;51.994;5.880;2022-11-27T09:50:57;21.00;;;9.32;;
55710;SDS011;41612;51.994;5.880;2022-11-27T09:53:46;21.77;;;8.98;;
55710;SDS011;41612;51.994;5.880;2022-11-27T09:56:16;18.55;;;9.15;;
55710;SDS011;41612;51.994;5.880;2022-11-27T09:58:49;21.27;;;9.35;;
55710;SDS011;41612;51.994;5.880;2022-11-27T10:01:23;20.95;;;9.55;;
55710;SDS011;41612;51.994;5.880;2022-11-27T10:03:51;20.40;;;9.50;;
55710;SDS011;41612;51.994;5.880;2022-11-27T10:06:18;19.88;;;9.43;;
55710;SDS011;41612;51.994;5.880;2022-11-27T10:11:30;23.75;;;9.98;;
55710;SDS011;41612;51.994;5.880;2022-11-27T10:14:18;19.33;;;9.32;;
55710;SDS011;41612;51.994;5.880;2022-11-27T10:17:16;19.27;;;9.02;;
55710;SDS011;41612;51.994;5.880;2022-11-27T10:22:17;17.70;;;8.98;;
55710;SDS011;41612;51.994;5.880;2022-11-27T10:27:37;18.27;;;9.43;;
55710;SDS011;41612;51.994;5.880;2022-11-27T10:30:14;18.63;;;9.52;;
55710;SDS011;41612;51.994;5.880;2022-11-27T10:32:41;18.67;;;10.73;;
55710;SDS011;41612;51.994;5.880;2022-11-27T10:35:18;21.33;;;10.35;;
55710;SDS011;41612;51.994;5.880;2022-11-27T10:37:51;17.63;;;9.90;;
55710;SDS011;41612;51.994;5.880;2022-11-27T10:40:46;18.63;;;9.77;;
55710;SDS011;41612;51.994;5.880;2022-11-27T10:43:19;23.55;;;10.48;;
55710;SDS011;41612;51.994;5.880;2022-11-27T10:48:37;15.98;;;9.32;;
55710;SDS011;41612;51.994;5.880;2022-11-27T10:51:09;19.98;;;10.25;;
55710;SDS011;41612;51.994;5.880;2022-11-27T10:53:42;18.90;;;8.70;;
55710;SDS011;41612;51.994;5.880;2022-11-27T11:01:17;18.63;;;9.38;;
55710;SDS011;41612;51.994;5.880;2022-11-27T11:03:44;16.90;;;9.50;;
55710;SDS011;41612;51.994;5.880;2022-11-27T11:06:14;16.98;;;9.00;;
55710;SDS011;41612;51.994;5.880;2022-11-27T11:11:53;14.27;;;9.55;;
55710;SDS011;41612;51.994;5.880;2022-11-27T11:14:21;17.67;;;8.77;;
55710;SDS011;41612;51.994;5.880;2022-11-27T11:16:48;20.27;;;8.65;;
55710;SDS011;41612;51.994;5.880;2022-11-27T11:19:22;14.73;;;8.30;;
55710;SDS011;41612;51.994;5.880;2022-11-27T11:21:48;17.02;;;8.63;;
55710;SDS011;41612;51.994;5.880;2022-11-27T11:24:36;18.33;;;9.00;;
55710;SDS011;41612;51.994;5.880;2022-11-27T11:27:25;20.08;;;9.05;;
55710;SDS011;41612;51.994;5.880;2022-11-27T11:29:58;13.80;;;7.85;;
55710;SDS011;41612;51.994;5.880;2022-11-27T11:32:36;17.45;;;8.65;;
55710;SDS011;41612;51.994;5.880;2022-11-27T11:35:25;21.58;;;9.45;;
55710;SDS011;41612;51.994;5.880;2022-11-27T11:37:53;17.35;;;8.82;;
55710;SDS011;41612;51.994;5.880;2022-11-27T11:45:21;14.23;;;8.73;;
55710;SDS011;41612;51.994;5.880;2022-11-27T11:47:51;18.67;;;9.60;;
55710;SDS011;41612;51.994;5.880;2022-11-27T12:04:35;15.52;;;8.23;;
55710;SDS011;41612;51.994;5.880;2022-11-27T12:10:13;14.80;;;8.00;;
55710;SDS011;41612;51.994;5.880;2022-11-27T12:22:03;18.23;;;8.50;;
55710;SDS011;41612;51.994;5.880;2022-11-27T12:30:14;16.80;;;8.05;;
55710;SDS011;41612;51.994;5.880;2022-11-27T12:32:56;14.32;;;8.32;;
55710;SDS011;41612;51.994;5.880;2022-11-27T12:36:08;17.17;;;7.95;;
55710;SDS011;41612;51.994;5.880;2022-11-27T12:42:10;13.63;;;8.50;;
55710;SDS011;41612;51.994;5.880;2022-11-27T12:44:55;14.52;;;7.57;;
55710;SDS011;41612;51.994;5.880;2022-11-27T12:47:39;13.18;;;8.38;;
55710;SDS011;41612;51.994;5.880;2022-11-27T12:50:21;13.77;;;7.75;;
55710;SDS011;41612;51.994;5.880;2022-11-27T12:55:39;13.98;;;7.70;;
55710;SDS011;41612;51.994;5.880;2022-11-27T12:58:11;12.05;;;7.35;;
55710;SDS011;41612;51.994;5.880;2022-11-27T13:00:53;15.93;;;7.88;;
55710;SDS011;41612;51.994;5.880;2022-11-27T13:03:30;13.77;;;7.07;;
55710;SDS011;41612;51.994;5.880;2022-11-27T13:06:05;16.10;;;7.10;;
55710;SDS011;41612;51.994;5.880;2022-11-27T13:11:37;11.75;;;7.32;;
55710;SDS011;41612;51.994;5.880;2022-11-27T13:14:15;11.73;;;7.20;;
55710;SDS011;41612;51.994;5.880;2022-11-27T13:16:50;10.98;;;6.80;;
55710;SDS011;41612;51.994;5.880;2022-11-27T13:19:30;16.88;;;7.65;;
55710;SDS011;41612;51.994;5.880;2022-11-27T13:22:14;13.13;;;7.45;;
55710;SDS011;41612;51.994;5.880;2022-11-27T13:24:46;14.50;;;7.47;;
55710;SDS011;41612;51.994;5.880;2022-11-27T13:27:16;14.90;;;7.63;;
55710;SDS011;41612;51.994;5.880;2022-11-27T13:29:54;11.90;;;7.82;;
55710;SDS011;41612;51.994;5.880;2022-11-27T13:32:25;13.63;;;7.57;;
55710;SDS011;41612;51.994;5.880;2022-11-27T13:34:58;10.93;;;6.72;;
55710;SDS011;41612;51.994;5.880;2022-11-27T13:42:41;9.77;;;6.95;;
55710;SDS011;41612;51.994;5.880;2022-11-27T13:45:17;14.77;;;7.35;;
55710;SDS011;41612;51.994;5.880;2022-11-27T13:47:46;15.00;;;7.75;;
55710;SDS011;41612;51.994;5.880;2022-11-27T13:50:14;12.68;;;7.40;;
55710;SDS011;41612;51.994;5.880;2022-11-27T13:53:04;12.43;;;6.72;;
55710;SDS011;41612;51.994;5.880;2022-11-27T13:55:37;15.63;;;7.63;;
55710;SDS011;41612;51.994;5.880;2022-11-27T13:58:04;12.52;;;7.68;;
55710;SDS011;41612;51.994;5.880;2022-11-27T14:00:38;13.38;;;8.00;;
55710;SDS011;41612;51.994;5.880;2022-11-27T14:03:06;13.52;;;8.45;;
55710;SDS011;41612;51.994;5.880;2022-11-27T14:05:44;15.63;;;8.60;;
55710;SDS011;41612;51.994;5.880;2022-11-27T14:08:15;17.25;;;8.65;;
55710;SDS011;41612;51.994;5.880;2022-11-27T14:13:34;14.45;;;9.18;;
55710;SDS011;41612;51.994;5.880;2022-11-27T14:16:25;17.50;;;8.68;;
55710;SDS011;41612;51.994;5.880;2022-11-27T14:19:00;20.05;;;8.27;;
55710;SDS011;41612;51.994;5.880;2022-11-27T14:21:46;17.35;;;8.10;;
55710;SDS011;41612;51.994;5.880;2022-11-27T14:24:51;11.25;;;7.65;;
55710;SDS011;41612;51.994;5.880;2022-11-27T14:27:17;22.30;;;9.73;;
55710;SDS011;41612;51.994;5.880;2022-11-27T14:29:45;13.90;;;7.95;;
55710;SDS011;41612;51.994;5.880;2022-11-27T14:32:12;18.33;;;8.57;;
55710;SDS011;41612;51.994;5.880;2022-11-27T14:34:42;13.15;;;7.65;;
55710;SDS011;41612;51.994;5.880;2022-11-27T14:37:24;15.43;;;9.05;;
55710;SDS011;41612;51.994;5.880;2022-11-27T14:39:52;16.77;;;8.85;;
55710;SDS011;41612;51.994;5.880;2022-11-27T14:42:23;14.77;;;8.52;;
55710;SDS011;41612;51.994;5.880;2022-11-27T14:45:02;14.32;;;7.63;;
55710;SDS011;41612;51.994;5.880;2022-11-27T14:47:30;14.88;;;8.63;;
55710;SDS011;41612;51.994;5.880;2022-11-27T14:49:57;13.57;;;9.13;;
55710;SDS011;41612;51.994;5.880;2022-11-27T14:52:26;16.60;;;8.35;;
55710;SDS011;41612;51.994;5.880;2022-11-27T14:54:53;13.93;;;8.80;;
55710;SDS011;41612;51.994;5.880;2022-11-27T14:57:23;17.23;;;10.65;;
55710;SDS011;41612;51.994;5.880;2022-11-27T15:02:38;18.98;;;9.55;;
55710;SDS011;41612;51.994;5.880;2022-11-27T15:05:26;16.50;;;9.95;;
55710;SDS011;41612;51.994;5.880;2022-11-27T15:07:55;14.68;;;9.40;;
55710;SDS011;41612;51.994;5.880;2022-11-27T15:12:59;14.05;;;8.95;;
55710;SDS011;41612;51.994;5.880;2022-11-27T15:15:27;14.88;;;9.07;;
55710;SDS011;41612;51.994;5.880;2022-11-27T15:17:59;16.45;;;10.10;;
55710;SDS011;41612;51.994;5.880;2022-11-27T15:20:33;15.20;;;9.13;;
55710;SDS011;41612;51.994;5.880;2022-11-27T15:23:02;14.45;;;9.90;;
55710;SDS011;41612;51.994;5.880;2022-11-27T15:25:37;13.77;;;8.90;;
55710;SDS011;41612;51.994;5.880;2022-11-27T15:30:51;13.90;;;8.63;;
55710;SDS011;41612;51.994;5.880;2022-11-27T15:36:20;14.43;;;8.40;;
55710;SDS011;41612;51.994;5.880;2022-11-27T15:38:46;17.77;;;9.82;;
55710;SDS011;41612;51.994;5.880;2022-11-27T15:41:19;15.50;;;9.65;;
55710;SDS011;41612;51.994;5.880;2022-11-27T15:43:50;21.10;;;10.30;;
55710;SDS011;41612;51.994;5.880;2022-11-27T15:46:19;17.23;;;9.73;;
55710;SDS011;41612;51.994;5.880;2022-11-27T15:48:55;20.98;;;9.15;;
55710;SDS011;41612;51.994;5.880;2022-11-27T15:51:21;15.30;;;9.73;;
55710;SDS011;41612;51.994;5.880;2022-11-27T15:53:46;14.25;;;9.38;;
55710;SDS011;41612;51.994;5.880;2022-11-27T15:56:15;14.10;;;9.57;;
55710;SDS011;41612;51.994;5.880;2022-11-27T15:58:42;13.65;;;8.80;;
55710;SDS011;41612;51.994;5.880;2022-11-27T16:01:08;16.15;;;9.93;;
55710;SDS011;41612;51.994;5.880;2022-11-27T16:03:34;14.75;;;9.63;;
55710;SDS011;41612;51.994;5.880;2022-11-27T16:06:04;15.80;;;9.13;;
55710;SDS011;41612;51.994;5.880;2022-11-27T16:08:31;17.42;;;10.35;;
55710;SDS011;41612;51.994;5.880;2022-11-27T16:11:04;14.98;;;9.85;;
55710;SDS011;41612;51.994;5.880;2022-11-27T16:13:32;17.92;;;11.30;;
55710;SDS011;41612;51.994;5.880;2022-11-27T16:16:01;15.70;;;9.52;;
55710;SDS011;41612;51.994;5.880;2022-11-27T16:18:34;14.23;;;10.23;;
55710;SDS011;41612;51.994;5.880;2022-11-27T16:21:04;17.52;;;9.90;;
55710;SDS011;41612;51.994;5.880;2022-11-27T16:23:33;16.83;;;9.23;;
55710;SDS011;41612;51.994;5.880;2022-11-27T16:26:00;19.63;;;9.70;;
55710;SDS011;41612;51.994;5.880;2022-11-27T16:28:26;13.50;;;9.18;;
55710;SDS011;41612;51.994;5.880;2022-11-27T16:30:54;12.77;;;8.63;;
55710;SDS011;41612;51.994;5.880;2022-11-27T16:33:23;14.63;;;7.53;;
55710;SDS011;41612;51.994;5.880;2022-11-27T16:35:50;13.85;;;8.32;;
55710;SDS011;41612;51.994;5.880;2022-11-27T16:38:19;19.70;;;11.48;;
55710;SDS011;41612;51.994;5.880;2022-11-27T16:40:47;16.33;;;8.55;;
55710;SDS011;41612;51.994;5.880;2022-11-27T16:43:13;16.30;;;8.73;;
55710;SDS011;41612;51.994;5.880;2022-11-27T16:45:41;13.30;;;8.30;;
55710;SDS011;41612;51.994;5.880;2022-11-27T16:48:07;11.43;;;7.88;;
55710;SDS011;41612;51.994;5.880;2022-11-27T16:50:33;11.52;;;7.80;;
55710;SDS011;41612;51.994;5.880;2022-11-27T16:52:58;14.00;;;8.00;;
55710;SDS011;41612;51.994;5.880;2022-11-27T16:55:24;14.23;;;8.70;;
55710;SDS011;41612;51.994;5.880;2022-11-27T16:57:50;15.15;;;7.13;;
55710;SDS011;41612;51.994;5.880;2022-11-27T17:00:16;14.52;;;7.65;;
55710;SDS011;41612;51.994;5.880;2022-11-27T17:02:42;12.68;;;7.97;;
55710;SDS011;41612;51.994;5.880;2022-11-27T17:05:08;12.40;;;8.55;;
55710;SDS011;41612;51.994;5.880;2022-11-27T17:07:34;14.98;;;8.77;;
55710;SDS011;41612;51.994;5.880;2022-11-27T17:10:00;13.38;;;7.88;;
55710;SDS011;41612;51.994;5.880;2022-11-27T17:12:26;15.80;;;8.48;;
55710;SDS011;41612;51.994;5.880;2022-11-27T17:14:52;15.52;;;8.57;;
55710;SDS011;41612;51.994;5.880;2022-11-27T17:17:18;13.25;;;7.82;;
55710;SDS011;41612;51.994;5.880;2022-11-27T17:19:44;11.73;;;7.47;;
55710;SDS011;41612;51.994;5.880;2022-11-27T17:22:13;10.48;;;7.07;;
55710;SDS011;41612;51.994;5.880;2022-11-27T17:24:39;14.50;;;8.90;;
55710;SDS011;41612;51.994;5.880;2022-11-27T17:27:05;12.38;;;9.13;;
55710;SDS011;41612;51.994;5.880;2022-11-27T17:29:33;17.73;;;8.60;;
55710;SDS011;41612;51.994;5.880;2022-11-27T17:32:01;17.50;;;8.77;;
55710;SDS011;41612;51.994;5.880;2022-11-27T17:34:27;15.10;;;8.98;;
55710;SDS011;41612;51.994;5.880;2022-11-27T17:36:52;13.05;;;8.77;;
55710;SDS011;41612;51.994;5.880;2022-11-27T17:39:22;18.38;;;9.90;;
55710;SDS011;41612;51.994;5.880;2022-11-27T17:41:48;14.88;;;9.00;;
55710;SDS011;41612;51.994;5.880;2022-11-27T17:44:14;14.43;;;9.45;;
55710;SDS011;41612;51.994;5.880;2022-11-27T17:46:39;12.63;;;8.43;;
55710;SDS011;41612;51.994;5.880;2022-11-27T17:49:06;17.35;;;8.38;;
55710;SDS011;41612;51.994;5.880;2022-11-27T17:51:32;10.65;;;7.63;;
55710;SDS011;41612;51.994;5.880;2022-11-27T17:54:00;11.57;;;7.47;;
55710;SDS011;41612;51.994;5.880;2022-11-27T17:56:29;14.60;;;9.10;;
55710;SDS011;41612;51.994;5.880;2022-11-27T17:58:55;14.07;;;8.35;;
55710;SDS011;41612;51.994;5.880;2022-11-27T18:01:22;13.32;;;7.88;;
55710;SDS011;41612;51.994;5.880;2022-11-27T18:03:50;13.32;;;8.00;;
55710;SDS011;41612;51.994;5.880;2022-11-27T18:06:18;11.93;;;7.57;;
55710;SDS011;41612;51.994;5.880;2022-11-27T18:08:45;13.95;;;7.75;;
55710;SDS011;41612;51.994;5.880;2022-11-27T18:11:14;12.35;;;8.00;;
55710;SDS011;41612;51.994;5.880;2022-11-27T18:13:45;16.30;;;7.45;;
55710;SDS011;41612;51.994;5.880;2022-11-27T18:16:12;13.32;;;7.55;;
55710;SDS011;41612;51.994;5.880;2022-11-27T18:18:40;13.93;;;8.05;;
55710;SDS011;41612;51.994;5.880;2022-11-27T18:21:09;13.32;;;7.20;;
55710;SDS011;41612;51.994;5.880;2022-11-27T18:23:36;21.92;;;6.97;;
55710;SDS011;41612;51.994;5.880;2022-11-27T18:26:07;10.77;;;6.93;;
55710;SDS011;41612;51.994;5.880;2022-11-27T18:28:35;13.68;;;7.63;;
55710;SDS011;41612;51.994;5.880;2022-11-27T18:31:05;11.55;;;7.55;;
55710;SDS011;41612;51.994;5.880;2022-11-27T18:33:32;11.43;;;6.90;;
55710;SDS011;41612;51.994;5.880;2022-11-27T18:35:58;16.88;;;7.30;;
55710;SDS011;41612;51.994;5.880;2022-11-27T18:38:24;11.95;;;6.72;;
55710;SDS011;41612;51.994;5.880;2022-11-27T18:40:50;11.80;;;7.72;;
55710;SDS011;41612;51.994;5.880;2022-11-27T18:43:16;12.60;;;7.20;;
55710;SDS011;41612;51.994;5.880;2022-11-27T18:45:42;19.08;;;9.13;;
55710;SDS011;41612;51.994;5.880;2022-11-27T18:48:08;12.90;;;8.13;;
55710;SDS011;41612;51.994;5.880;2022-11-27T18:50:34;14.82;;;8.30;;
55710;SDS011;41612;51.994;5.880;2022-11-27T18:53:01;11.85;;;9.73;;
55710;SDS011;41612;51.994;5.880;2022-11-27T18:55:30;15.40;;;11.25;;
55710;SDS011;41612;51.994;5.880;2022-11-27T18:57:57;17.08;;;11.38;;
55710;SDS011;41612;51.994;5.880;2022-11-27T19:00:23;16.25;;;10.68;;
